sensor_id;sensor_type;location;lat;lon;timestamp;P1;durP1;ratioP1;P2;durP2;ratioP2
14187;SDS011;7175;51.978;5.330;2022-08-01T00:03:56;53.47;;;50.17;;
14187;SDS011;7175;51.978;5.330;2022-08-01T00:06:30;54.40;;;51.10;;
14187;SDS011;7175;51.978;5.330;2022-08-01T00:09:01;55.47;;;52.07;;
14187;SDS011;7175;51.978;5.330;2022-08-01T00:11:30;54.43;;;51.03;;
14187;SDS011;7175;51.978;5.330;2022-08-01T00:14:03;54.23;;;50.93;;
14187;SDS011;7175;51.978;5.330;2022-08-01T00:16:33;54.37;;;51.07;;
14187;SDS011;7175;51.978;5.330;2022-08-01T00:19:04;53.30;;;50.00;;
14187;SDS011;7175;51.978;5.330;2022-08-01T00:21:35;52.73;;;49.53;;
14187;SDS011;7175;51.978;5.330;2022-08-01T00:24:18;53.77;;;50.47;;
14187;SDS011;7175;51.978;5.330;2022-08-01T00:26:49;51.10;;;48.00;;
14187;SDS011;7175;51.978;5.330;2022-08-01T00:29:17;51.53;;;48.40;;
14187;SDS011;7175;51.978;5.330;2022-08-01T00:32:05;51.23;;;48.07;;
14187;SDS011;7175;51.978;5.330;2022-08-01T00:34:41;48.77;;;45.77;;
14187;SDS011;7175;51.978;5.330;2022-08-01T00:37:19;49.80;;;46.70;;
14187;SDS011;7175;51.978;5.330;2022-08-01T00:39:49;50.77;;;47.57;;
14187;SDS011;7175;51.978;5.330;2022-08-01T00:42:17;49.17;;;46.07;;
14187;SDS011;7175;51.978;5.330;2022-08-01T00:44:46;51.57;;;48.30;;
14187;SDS011;7175;51.978;5.330;2022-08-01T00:47:15;51.77;;;48.57;;
14187;SDS011;7175;51.978;5.330;2022-08-01T00:49:43;52.10;;;48.90;;
14187;SDS011;7175;51.978;5.330;2022-08-01T00:52:14;53.50;;;50.20;;
14187;SDS011;7175;51.978;5.330;2022-08-01T00:54:42;53.03;;;49.73;;
14187;SDS011;7175;51.978;5.330;2022-08-01T00:57:19;52.50;;;49.30;;
14187;SDS011;7175;51.978;5.330;2022-08-01T01:00:08;52.80;;;49.50;;
14187;SDS011;7175;51.978;5.330;2022-08-01T01:02:38;54.73;;;51.33;;
14187;SDS011;7175;51.978;5.330;2022-08-01T01:05:06;55.70;;;52.10;;
14187;SDS011;7175;51.978;5.330;2022-08-01T01:07:36;53.23;;;49.93;;
14187;SDS011;7175;51.978;5.330;2022-08-01T01:10:16;53.43;;;50.13;;
14187;SDS011;7175;51.978;5.330;2022-08-01T01:12:53;53.20;;;49.90;;
14187;SDS011;7175;51.978;5.330;2022-08-01T01:15:28;52.47;;;49.27;;
14187;SDS011;7175;51.978;5.330;2022-08-01T01:18:11;53.23;;;49.93;;
14187;SDS011;7175;51.978;5.330;2022-08-01T01:20:44;53.87;;;50.47;;
14187;SDS011;7175;51.978;5.330;2022-08-01T01:23:24;55.80;;;52.30;;
14187;SDS011;7175;51.978;5.330;2022-08-01T01:26:25;55.97;;;52.47;;
14187;SDS011;7175;51.978;5.330;2022-08-01T01:29:07;58.17;;;54.03;;
14187;SDS011;7175;51.978;5.330;2022-08-01T01:31:42;55.80;;;52.30;;
14187;SDS011;7175;51.978;5.330;2022-08-01T01:34:14;56.33;;;52.73;;
14187;SDS011;7175;51.978;5.330;2022-08-01T01:36:45;58.50;;;54.80;;
14187;SDS011;7175;51.978;5.330;2022-08-01T01:39:18;58.83;;;55.20;;
14187;SDS011;7175;51.978;5.330;2022-08-01T01:41:48;60.47;;;56.67;;
14187;SDS011;7175;51.978;5.330;2022-08-01T01:44:21;60.53;;;56.73;;
14187;SDS011;7175;51.978;5.330;2022-08-01T01:46:49;61.37;;;57.57;;
14187;SDS011;7175;51.978;5.330;2022-08-01T01:49:26;59.50;;;55.80;;
14187;SDS011;7175;51.978;5.330;2022-08-01T01:52:01;62.30;;;58.40;;
14187;SDS011;7175;51.978;5.330;2022-08-01T01:54:35;61.60;;;57.80;;
14187;SDS011;7175;51.978;5.330;2022-08-01T01:57:07;60.90;;;57.10;;
14187;SDS011;7175;51.978;5.330;2022-08-01T01:59:39;58.93;;;55.23;;
14187;SDS011;7175;51.978;5.330;2022-08-01T02:02:10;61.13;;;57.23;;
14187;SDS011;7175;51.978;5.330;2022-08-01T02:04:41;61.30;;;57.50;;
14187;SDS011;7175;51.978;5.330;2022-08-01T02:07:14;60.90;;;57.10;;
14187;SDS011;7175;51.978;5.330;2022-08-01T02:09:48;60.40;;;56.60;;
14187;SDS011;7175;51.978;5.330;2022-08-01T02:12:18;62.93;;;59.03;;
14187;SDS011;7175;51.978;5.330;2022-08-01T02:14:49;60.83;;;57.03;;
14187;SDS011;7175;51.978;5.330;2022-08-01T02:17:25;63.13;;;59.23;;
14187;SDS011;7175;51.978;5.330;2022-08-01T02:20:01;64.27;;;60.27;;
14187;SDS011;7175;51.978;5.330;2022-08-01T02:22:32;65.53;;;61.53;;
14187;SDS011;7175;51.978;5.330;2022-08-01T02:25:06;67.10;;;63.00;;
14187;SDS011;7175;51.978;5.330;2022-08-01T02:27:42;69.73;;;65.43;;
14187;SDS011;7175;51.978;5.330;2022-08-01T02:30:17;70.23;;;65.93;;
14187;SDS011;7175;51.978;5.330;2022-08-01T02:32:49;68.67;;;64.40;;
14187;SDS011;7175;51.978;5.330;2022-08-01T02:35:25;68.73;;;64.50;;
14187;SDS011;7175;51.978;5.330;2022-08-01T02:37:58;68.67;;;64.47;;
14187;SDS011;7175;51.978;5.330;2022-08-01T02:40:29;69.27;;;64.97;;
14187;SDS011;7175;51.978;5.330;2022-08-01T02:43:00;68.73;;;64.53;;
14187;SDS011;7175;51.978;5.330;2022-08-01T02:45:32;66.27;;;62.10;;
14187;SDS011;7175;51.978;5.330;2022-08-01T02:48:04;69.60;;;65.30;;
14187;SDS011;7175;51.978;5.330;2022-08-01T02:50:37;67.27;;;63.07;;
14187;SDS011;7175;51.978;5.330;2022-08-01T02:53:07;69.43;;;65.13;;
14187;SDS011;7175;51.978;5.330;2022-08-01T02:55:40;68.23;;;63.93;;
14187;SDS011;7175;51.978;5.330;2022-08-01T02:58:12;71.03;;;66.73;;
14187;SDS011;7175;51.978;5.330;2022-08-01T03:00:46;68.67;;;64.47;;
14187;SDS011;7175;51.978;5.330;2022-08-01T03:03:17;68.93;;;64.73;;
14187;SDS011;7175;51.978;5.330;2022-08-01T03:05:46;69.73;;;65.53;;
14187;SDS011;7175;51.978;5.330;2022-08-01T03:08:15;69.67;;;65.37;;
14187;SDS011;7175;51.978;5.330;2022-08-01T03:10:46;67.53;;;63.33;;
14187;SDS011;7175;51.978;5.330;2022-08-01T03:13:16;68.00;;;63.70;;
14187;SDS011;7175;51.978;5.330;2022-08-01T03:15:46;67.97;;;63.77;;
14187;SDS011;7175;51.978;5.330;2022-08-01T03:18:17;71.87;;;67.47;;
14187;SDS011;7175;51.978;5.330;2022-08-01T03:20:47;70.60;;;66.30;;
14187;SDS011;7175;51.978;5.330;2022-08-01T03:23:19;70.23;;;65.80;;
14187;SDS011;7175;51.978;5.330;2022-08-01T03:26:03;68.57;;;64.37;;
14187;SDS011;7175;51.978;5.330;2022-08-01T03:28:33;72.83;;;68.43;;
14187;SDS011;7175;51.978;5.330;2022-08-01T03:31:14;77.40;;;72.60;;
14187;SDS011;7175;51.978;5.330;2022-08-01T03:33:44;76.23;;;71.63;;
14187;SDS011;7175;51.978;5.330;2022-08-01T03:41:35;77.67;;;72.97;;
14187;SDS011;7175;51.978;5.330;2022-08-01T03:44:07;78.57;;;73.80;;
14187;SDS011;7175;51.978;5.330;2022-08-01T03:46:43;80.00;;;75.20;;
14187;SDS011;7175;51.978;5.330;2022-08-01T03:49:17;78.93;;;73.93;;
14187;SDS011;7175;51.978;5.330;2022-08-01T03:51:51;80.90;;;75.90;;
14187;SDS011;7175;51.978;5.330;2022-08-01T03:54:23;80.47;;;75.40;;
14187;SDS011;7175;51.978;5.330;2022-08-01T03:56:54;84.67;;;79.40;;
14187;SDS011;7175;51.978;5.330;2022-08-01T03:59:27;82.77;;;77.57;;
14187;SDS011;7175;51.978;5.330;2022-08-01T04:02:01;84.93;;;79.63;;
14187;SDS011;7175;51.978;5.330;2022-08-01T04:04:31;82.90;;;77.80;;
14187;SDS011;7175;51.978;5.330;2022-08-01T04:07:00;83.70;;;78.50;;
14187;SDS011;7175;51.978;5.330;2022-08-01T04:09:41;81.57;;;76.47;;
14187;SDS011;7175;51.978;5.330;2022-08-01T04:12:11;82.87;;;77.77;;
14187;SDS011;7175;51.978;5.330;2022-08-01T04:14:44;78.57;;;73.57;;
14187;SDS011;7175;51.978;5.330;2022-08-01T04:17:16;80.40;;;75.60;;
14187;SDS011;7175;51.978;5.330;2022-08-01T04:19:45;76.03;;;71.33;;
14187;SDS011;7175;51.978;5.330;2022-08-01T04:22:14;80.80;;;75.97;;
14187;SDS011;7175;51.978;5.330;2022-08-01T04:24:51;78.60;;;73.90;;
14187;SDS011;7175;51.978;5.330;2022-08-01T04:27:26;75.47;;;70.87;;
14187;SDS011;7175;51.978;5.330;2022-08-01T04:30:18;76.47;;;71.80;;
14187;SDS011;7175;51.978;5.330;2022-08-01T04:32:51;75.50;;;70.90;;
14187;SDS011;7175;51.978;5.330;2022-08-01T04:35:22;77.90;;;73.20;;
14187;SDS011;7175;51.978;5.330;2022-08-01T04:38:17;74.37;;;69.77;;
14187;SDS011;7175;51.978;5.330;2022-08-01T04:43:29;76.73;;;72.03;;
14187;SDS011;7175;51.978;5.330;2022-08-01T04:45:58;79.17;;;74.37;;
14187;SDS011;7175;51.978;5.330;2022-08-01T04:48:36;79.70;;;74.80;;
14187;SDS011;7175;51.978;5.330;2022-08-01T04:51:11;82.00;;;76.93;;
14187;SDS011;7175;51.978;5.330;2022-08-01T04:53:41;79.43;;;74.63;;
14187;SDS011;7175;51.978;5.330;2022-08-01T04:56:10;80.60;;;75.83;;
14187;SDS011;7175;51.978;5.330;2022-08-01T04:58:41;77.37;;;72.70;;
14187;SDS011;7175;51.978;5.330;2022-08-01T05:01:09;77.40;;;72.70;;
14187;SDS011;7175;51.978;5.330;2022-08-01T05:03:41;75.20;;;70.60;;
14187;SDS011;7175;51.978;5.330;2022-08-01T05:06:10;75.13;;;70.53;;
14187;SDS011;7175;51.978;5.330;2022-08-01T05:08:38;71.10;;;66.70;;
14187;SDS011;7175;51.978;5.330;2022-08-01T05:11:07;72.67;;;68.27;;
14187;SDS011;7175;51.978;5.330;2022-08-01T05:13:53;67.93;;;63.73;;
14187;SDS011;7175;51.978;5.330;2022-08-01T05:16:30;64.63;;;60.47;;
14187;SDS011;7175;51.978;5.330;2022-08-01T05:19:06;66.00;;;61.80;;
14187;SDS011;7175;51.978;5.330;2022-08-01T05:21:36;67.70;;;63.40;;
14187;SDS011;7175;51.978;5.330;2022-08-01T05:24:07;68.57;;;64.17;;
14187;SDS011;7175;51.978;5.330;2022-08-01T05:26:37;72.50;;;67.70;;
14187;SDS011;7175;51.978;5.330;2022-08-01T05:29:07;70.50;;;66.10;;
14187;SDS011;7175;51.978;5.330;2022-08-01T05:31:41;74.00;;;69.50;;
14187;SDS011;7175;51.978;5.330;2022-08-01T05:34:14;74.50;;;70.00;;
14187;SDS011;7175;51.978;5.330;2022-08-01T05:36:43;66.70;;;62.50;;
14187;SDS011;7175;51.978;5.330;2022-08-01T05:39:12;60.80;;;57.00;;
14187;SDS011;7175;51.978;5.330;2022-08-01T05:41:51;57.03;;;53.43;;
14187;SDS011;7175;51.978;5.330;2022-08-01T05:44:26;52.27;;;48.87;;
14187;SDS011;7175;51.978;5.330;2022-08-01T05:46:56;48.50;;;45.30;;
14187;SDS011;7175;51.978;5.330;2022-08-01T05:49:26;45.47;;;42.37;;
14187;SDS011;7175;51.978;5.330;2022-08-01T05:51:54;45.67;;;42.57;;
14187;SDS011;7175;51.978;5.330;2022-08-01T05:54:23;45.10;;;42.10;;
14187;SDS011;7175;51.978;5.330;2022-08-01T05:56:51;39.90;;;37.10;;
14187;SDS011;7175;51.978;5.330;2022-08-01T05:59:20;38.23;;;35.53;;
14187;SDS011;7175;51.978;5.330;2022-08-01T06:01:48;37.13;;;34.43;;
14187;SDS011;7175;51.978;5.330;2022-08-01T06:04:18;37.03;;;34.17;;
14187;SDS011;7175;51.978;5.330;2022-08-01T06:06:48;33.20;;;30.80;;
14187;SDS011;7175;51.978;5.330;2022-08-01T06:09:17;29.90;;;27.60;;
14187;SDS011;7175;51.978;5.330;2022-08-01T06:11:45;28.23;;;26.03;;
14187;SDS011;7175;51.978;5.330;2022-08-01T06:14:16;28.67;;;26.47;;
14187;SDS011;7175;51.978;5.330;2022-08-01T06:16:45;27.67;;;25.50;;
14187;SDS011;7175;51.978;5.330;2022-08-01T06:19:15;27.27;;;25.17;;
14187;SDS011;7175;51.978;5.330;2022-08-01T06:21:49;27.90;;;25.70;;
14187;SDS011;7175;51.978;5.330;2022-08-01T06:24:18;26.97;;;24.87;;
14187;SDS011;7175;51.978;5.330;2022-08-01T06:26:49;27.53;;;25.43;;
14187;SDS011;7175;51.978;5.330;2022-08-01T06:29:17;27.10;;;25.00;;
14187;SDS011;7175;51.978;5.330;2022-08-01T06:31:46;26.70;;;24.70;;
14187;SDS011;7175;51.978;5.330;2022-08-01T06:34:14;26.90;;;24.80;;
14187;SDS011;7175;51.978;5.330;2022-08-01T06:36:49;27.97;;;25.87;;
14187;SDS011;7175;51.978;5.330;2022-08-01T06:39:19;29.20;;;27.00;;
14187;SDS011;7175;51.978;5.330;2022-08-01T06:41:54;31.03;;;28.73;;
14187;SDS011;7175;51.978;5.330;2022-08-01T06:44:25;31.00;;;28.70;;
14187;SDS011;7175;51.978;5.330;2022-08-01T06:46:54;31.83;;;29.53;;
14187;SDS011;7175;51.978;5.330;2022-08-01T06:49:26;33.20;;;30.80;;
14187;SDS011;7175;51.978;5.330;2022-08-01T06:51:58;36.27;;;33.67;;
14187;SDS011;7175;51.978;5.330;2022-08-01T06:54:27;37.27;;;34.57;;
14187;SDS011;7175;51.978;5.330;2022-08-01T06:57:04;39.70;;;36.90;;
14187;SDS011;7175;51.978;5.330;2022-08-01T06:59:42;43.40;;;40.40;;
14187;SDS011;7175;51.978;5.330;2022-08-01T07:02:21;42.83;;;39.73;;
14187;SDS011;7175;51.978;5.330;2022-08-01T07:04:50;42.50;;;39.50;;
14187;SDS011;7175;51.978;5.330;2022-08-01T07:07:26;43.17;;;40.10;;
14187;SDS011;7175;51.978;5.330;2022-08-01T07:09:56;45.27;;;42.07;;
14187;SDS011;7175;51.978;5.330;2022-08-01T07:12:24;63.23;;;59.03;;
14187;SDS011;7175;51.978;5.330;2022-08-01T07:14:58;72.53;;;67.73;;
14187;SDS011;7175;51.978;5.330;2022-08-01T07:17:36;76.33;;;71.27;;
14187;SDS011;7175;51.978;5.330;2022-08-01T07:20:15;76.73;;;71.63;;
14187;SDS011;7175;51.978;5.330;2022-08-01T07:22:46;78.87;;;73.67;;
14187;SDS011;7175;51.978;5.330;2022-08-01T07:25:16;75.77;;;70.77;;
14187;SDS011;7175;51.978;5.330;2022-08-01T07:27:46;72.60;;;67.80;;
14187;SDS011;7175;51.978;5.330;2022-08-01T07:36:14;72.43;;;67.63;;
14187;SDS011;7175;51.978;5.330;2022-08-01T07:38:52;75.93;;;70.93;;
14187;SDS011;7175;51.978;5.330;2022-08-01T07:41:24;77.77;;;72.60;;
14187;SDS011;7175;51.978;5.330;2022-08-01T07:44:18;73.17;;;68.37;;
14187;SDS011;7175;51.978;5.330;2022-08-01T07:47:05;75.40;;;70.50;;
14187;SDS011;7175;51.978;5.330;2022-08-01T07:49:38;67.40;;;62.90;;
14187;SDS011;7175;51.978;5.330;2022-08-01T07:52:16;68.03;;;63.53;;
14187;SDS011;7175;51.978;5.330;2022-08-01T07:54:46;67.60;;;63.10;;
14187;SDS011;7175;51.978;5.330;2022-08-01T07:57:24;65.70;;;61.20;;
14187;SDS011;7175;51.978;5.330;2022-08-01T08:00:01;66.23;;;61.63;;
14187;SDS011;7175;51.978;5.330;2022-08-01T08:02:32;71.27;;;65.83;;
14187;SDS011;7175;51.978;5.330;2022-08-01T08:05:06;73.37;;;67.93;;
14187;SDS011;7175;51.978;5.330;2022-08-01T08:10:17;77.00;;;71.90;;
14187;SDS011;7175;51.978;5.330;2022-08-01T08:12:47;78.03;;;72.93;;
14187;SDS011;7175;51.978;5.330;2022-08-01T08:15:22;77.20;;;72.10;;
14187;SDS011;7175;51.978;5.330;2022-08-01T08:17:50;73.40;;;68.60;;
14187;SDS011;7175;51.978;5.330;2022-08-01T08:20:20;52.97;;;49.20;;
14187;SDS011;7175;51.978;5.330;2022-08-01T08:22:51;55.27;;;51.37;;
14187;SDS011;7175;51.978;5.330;2022-08-01T08:25:21;58.10;;;54.00;;
14187;SDS011;7175;51.978;5.330;2022-08-01T08:27:52;59.53;;;55.33;;
14187;SDS011;7175;51.978;5.330;2022-08-01T08:30:20;58.70;;;54.60;;
14187;SDS011;7175;51.978;5.330;2022-08-01T08:35:20;66.10;;;61.60;;
14187;SDS011;7175;51.978;5.330;2022-08-01T08:38:10;66.90;;;62.40;;
14187;SDS011;7175;51.978;5.330;2022-08-01T08:40:41;64.40;;;60.10;;
14187;SDS011;7175;51.978;5.330;2022-08-01T08:43:10;65.70;;;61.30;;
14187;SDS011;7175;51.978;5.330;2022-08-01T08:45:38;60.37;;;55.77;;
14187;SDS011;7175;51.978;5.330;2022-08-01T08:48:26;58.97;;;54.87;;
14187;SDS011;7175;51.978;5.330;2022-08-01T08:50:56;60.47;;;56.37;;
14187;SDS011;7175;51.978;5.330;2022-08-01T08:53:28;58.07;;;54.07;;
14187;SDS011;7175;51.978;5.330;2022-08-01T08:56:01;62.03;;;57.83;;
14187;SDS011;7175;51.978;5.330;2022-08-01T08:58:31;56.10;;;52.27;;
14187;SDS011;7175;51.978;5.330;2022-08-01T09:01:04;61.40;;;57.20;;
14187;SDS011;7175;51.978;5.330;2022-08-01T09:03:33;60.50;;;56.33;;
14187;SDS011;7175;51.978;5.330;2022-08-01T09:06:02;60.23;;;54.93;;
14187;SDS011;7175;51.978;5.330;2022-08-01T09:08:32;60.57;;;56.47;;
14187;SDS011;7175;51.978;5.330;2022-08-01T09:11:02;58.27;;;54.37;;
14187;SDS011;7175;51.978;5.330;2022-08-01T09:13:31;60.30;;;56.30;;
14187;SDS011;7175;51.978;5.330;2022-08-01T09:15:59;54.30;;;50.50;;
14187;SDS011;7175;51.978;5.330;2022-08-01T09:18:29;40.10;;;37.20;;
14187;SDS011;7175;51.978;5.330;2022-08-01T09:21:11;43.77;;;40.77;;
14187;SDS011;7175;51.978;5.330;2022-08-01T09:23:43;41.57;;;38.67;;
14187;SDS011;7175;51.978;5.330;2022-08-01T09:26:22;38.10;;;35.30;;
14187;SDS011;7175;51.978;5.330;2022-08-01T09:28:57;36.30;;;33.60;;
14187;SDS011;7175;51.978;5.330;2022-08-01T09:31:27;40.37;;;37.47;;
14187;SDS011;7175;51.978;5.330;2022-08-01T09:34:04;37.23;;;34.53;;
14187;SDS011;7175;51.978;5.330;2022-08-01T09:36:45;31.77;;;29.33;;
14187;SDS011;7175;51.978;5.330;2022-08-01T09:39:23;28.77;;;26.57;;
14187;SDS011;7175;51.978;5.330;2022-08-01T09:41:56;30.23;;;28.03;;
14187;SDS011;7175;51.978;5.330;2022-08-01T09:44:38;28.20;;;25.97;;
14187;SDS011;7175;51.978;5.330;2022-08-01T09:47:10;47.67;;;27.37;;
14187;SDS011;7175;51.978;5.330;2022-08-01T09:49:43;26.53;;;24.40;;
14187;SDS011;7175;51.978;5.330;2022-08-01T09:52:19;28.97;;;26.67;;
14187;SDS011;7175;51.978;5.330;2022-08-01T09:54:52;31.07;;;28.67;;
14187;SDS011;7175;51.978;5.330;2022-08-01T09:57:23;34.47;;;31.87;;
14187;SDS011;7175;51.978;5.330;2022-08-01T09:59:54;33.20;;;30.60;;
14187;SDS011;7175;51.978;5.330;2022-08-01T10:02:34;30.07;;;27.77;;
14187;SDS011;7175;51.978;5.330;2022-08-01T10:05:05;25.23;;;23.23;;
14187;SDS011;7175;51.978;5.330;2022-08-01T10:07:35;27.80;;;25.17;;
14187;SDS011;7175;51.978;5.330;2022-08-01T10:10:10;26.23;;;24.13;;
14187;SDS011;7175;51.978;5.330;2022-08-01T10:12:42;27.33;;;25.13;;
14187;SDS011;7175;51.978;5.330;2022-08-01T10:15:13;23.40;;;21.50;;
14187;SDS011;7175;51.978;5.330;2022-08-01T10:17:46;23.97;;;22.00;;
14187;SDS011;7175;51.978;5.330;2022-08-01T10:20:25;23.20;;;21.30;;
14187;SDS011;7175;51.978;5.330;2022-08-01T10:23:05;24.20;;;22.20;;
14187;SDS011;7175;51.978;5.330;2022-08-01T10:25:35;23.07;;;21.17;;
14187;SDS011;7175;51.978;5.330;2022-08-01T10:28:16;22.33;;;20.43;;
14187;SDS011;7175;51.978;5.330;2022-08-01T10:31:00;22.00;;;20.10;;
14187;SDS011;7175;51.978;5.330;2022-08-01T10:33:39;22.00;;;20.10;;
14187;SDS011;7175;51.978;5.330;2022-08-01T10:36:19;20.93;;;19.13;;
14187;SDS011;7175;51.978;5.330;2022-08-01T10:38:51;21.00;;;19.20;;
14187;SDS011;7175;51.978;5.330;2022-08-01T10:41:21;20.90;;;19.10;;
14187;SDS011;7175;51.978;5.330;2022-08-01T10:43:51;22.13;;;20.07;;
14187;SDS011;7175;51.978;5.330;2022-08-01T10:46:20;22.27;;;20.37;;
14187;SDS011;7175;51.978;5.330;2022-08-01T10:48:54;22.17;;;20.30;;
14187;SDS011;7175;51.978;5.330;2022-08-01T10:51:30;22.50;;;20.60;;
14187;SDS011;7175;51.978;5.330;2022-08-01T10:54:19;20.90;;;19.13;;
14187;SDS011;7175;51.978;5.330;2022-08-01T10:56:59;20.83;;;19.13;;
14187;SDS011;7175;51.978;5.330;2022-08-01T10:59:35;20.70;;;19.00;;
14187;SDS011;7175;51.978;5.330;2022-08-01T11:02:34;21.03;;;19.33;;
14187;SDS011;7175;51.978;5.330;2022-08-01T11:05:19;20.60;;;18.90;;
14187;SDS011;7175;51.978;5.330;2022-08-01T11:07:52;21.40;;;19.60;;
14187;SDS011;7175;51.978;5.330;2022-08-01T11:10:22;20.33;;;18.73;;
14187;SDS011;7175;51.978;5.330;2022-08-01T11:13:07;20.37;;;18.77;;
14187;SDS011;7175;51.978;5.330;2022-08-01T11:15:41;19.97;;;18.37;;
14187;SDS011;7175;51.978;5.330;2022-08-01T11:18:32;20.10;;;18.50;;
14187;SDS011;7175;51.978;5.330;2022-08-01T11:21:05;21.90;;;19.90;;
14187;SDS011;7175;51.978;5.330;2022-08-01T11:23:54;20.47;;;18.87;;
14187;SDS011;7175;51.978;5.330;2022-08-01T11:26:26;20.90;;;19.30;;
14187;SDS011;7175;51.978;5.330;2022-08-01T11:29:12;19.83;;;18.33;;
14187;SDS011;7175;51.978;5.330;2022-08-01T11:31:55;20.90;;;19.30;;
14187;SDS011;7175;51.978;5.330;2022-08-01T11:35:07;20.90;;;19.30;;
14187;SDS011;7175;51.978;5.330;2022-08-01T11:37:37;20.80;;;19.20;;
14187;SDS011;7175;51.978;5.330;2022-08-01T11:40:17;21.13;;;19.50;;
14187;SDS011;7175;51.978;5.330;2022-08-01T11:42:51;20.93;;;19.33;;
14187;SDS011;7175;51.978;5.330;2022-08-01T11:45:48;21.57;;;19.67;;
14187;SDS011;7175;51.978;5.330;2022-08-01T11:48:21;21.00;;;19.40;;
14187;SDS011;7175;51.978;5.330;2022-08-01T11:50:53;20.80;;;19.20;;
14187;SDS011;7175;51.978;5.330;2022-08-01T11:53:22;20.57;;;18.97;;
14187;SDS011;7175;51.978;5.330;2022-08-01T11:55:53;21.50;;;19.70;;
14187;SDS011;7175;51.978;5.330;2022-08-01T11:58:26;20.33;;;18.73;;
14187;SDS011;7175;51.978;5.330;2022-08-01T12:00:58;20.90;;;19.30;;
14187;SDS011;7175;51.978;5.330;2022-08-01T12:03:29;22.37;;;20.37;;
14187;SDS011;7175;51.978;5.330;2022-08-01T12:06:00;21.13;;;19.33;;
14187;SDS011;7175;51.978;5.330;2022-08-01T12:08:31;21.13;;;19.30;;
14187;SDS011;7175;51.978;5.330;2022-08-01T12:11:04;20.27;;;18.67;;
14187;SDS011;7175;51.978;5.330;2022-08-01T12:13:43;20.13;;;18.53;;
14187;SDS011;7175;51.978;5.330;2022-08-01T12:16:13;20.37;;;18.70;;
14187;SDS011;7175;51.978;5.330;2022-08-01T12:18:42;20.20;;;18.57;;
14187;SDS011;7175;51.978;5.330;2022-08-01T12:21:10;21.00;;;19.20;;
14187;SDS011;7175;51.978;5.330;2022-08-01T12:23:39;20.90;;;19.20;;
14187;SDS011;7175;51.978;5.330;2022-08-01T12:26:07;20.90;;;19.20;;
14187;SDS011;7175;51.978;5.330;2022-08-01T12:29:01;20.90;;;19.20;;
14187;SDS011;7175;51.978;5.330;2022-08-01T12:31:32;22.70;;;20.80;;
14187;SDS011;7175;51.978;5.330;2022-08-01T12:36:52;27.70;;;25.27;;
14187;SDS011;7175;51.978;5.330;2022-08-01T12:39:22;28.87;;;24.93;;
14187;SDS011;7175;51.978;5.330;2022-08-01T12:41:58;24.43;;;22.23;;
14187;SDS011;7175;51.978;5.330;2022-08-01T12:44:28;47.30;;;37.80;;
14187;SDS011;7175;51.978;5.330;2022-08-01T12:46:58;24.63;;;22.40;;
14187;SDS011;7175;51.978;5.330;2022-08-01T12:49:29;21.97;;;20.10;;
14187;SDS011;7175;51.978;5.330;2022-08-01T12:51:58;21.03;;;19.33;;
14187;SDS011;7175;51.978;5.330;2022-08-01T12:54:27;21.00;;;19.30;;
14187;SDS011;7175;51.978;5.330;2022-08-01T12:56:55;21.10;;;19.40;;
14187;SDS011;7175;51.978;5.330;2022-08-01T12:59:25;21.43;;;19.63;;
14187;SDS011;7175;51.978;5.330;2022-08-01T13:01:56;21.50;;;19.80;;
14187;SDS011;7175;51.978;5.330;2022-08-01T13:04:48;20.30;;;18.70;;
14187;SDS011;7175;51.978;5.330;2022-08-01T13:07:17;20.70;;;19.00;;
14187;SDS011;7175;51.978;5.330;2022-08-01T13:09:48;21.20;;;19.50;;
14187;SDS011;7175;51.978;5.330;2022-08-01T13:12:17;20.90;;;19.20;;
14187;SDS011;7175;51.978;5.330;2022-08-01T13:14:46;20.80;;;19.10;;
14187;SDS011;7175;51.978;5.330;2022-08-01T13:20:04;19.70;;;18.10;;
14187;SDS011;7175;51.978;5.330;2022-08-01T13:22:33;19.87;;;18.27;;
14187;SDS011;7175;51.978;5.330;2022-08-01T13:25:09;20.10;;;18.50;;
14187;SDS011;7175;51.978;5.330;2022-08-01T13:27:41;19.50;;;17.90;;
14187;SDS011;7175;51.978;5.330;2022-08-01T13:30:25;20.10;;;18.50;;
14187;SDS011;7175;51.978;5.330;2022-08-01T13:32:58;20.00;;;18.40;;
14187;SDS011;7175;51.978;5.330;2022-08-01T13:35:28;19.80;;;18.20;;
14187;SDS011;7175;51.978;5.330;2022-08-01T13:37:56;19.87;;;18.27;;
14187;SDS011;7175;51.978;5.330;2022-08-01T13:40:26;19.60;;;18.00;;
14187;SDS011;7175;51.978;5.330;2022-08-01T13:42:55;20.20;;;18.50;;
14187;SDS011;7175;51.978;5.330;2022-08-01T13:45:27;19.97;;;18.37;;
14187;SDS011;7175;51.978;5.330;2022-08-01T13:48:00;19.80;;;18.20;;
14187;SDS011;7175;51.978;5.330;2022-08-01T13:50:46;19.83;;;18.23;;
14187;SDS011;7175;51.978;5.330;2022-08-01T13:53:35;19.67;;;18.07;;
14187;SDS011;7175;51.978;5.330;2022-08-01T13:56:05;19.70;;;18.10;;
14187;SDS011;7175;51.978;5.330;2022-08-01T13:58:33;19.67;;;18.07;;
14187;SDS011;7175;51.978;5.330;2022-08-01T14:01:02;19.73;;;18.13;;
14187;SDS011;7175;51.978;5.330;2022-08-01T14:03:33;19.53;;;17.93;;
14187;SDS011;7175;51.978;5.330;2022-08-01T14:06:02;19.83;;;18.23;;
14187;SDS011;7175;51.978;5.330;2022-08-01T14:08:32;19.70;;;18.10;;
14187;SDS011;7175;51.978;5.330;2022-08-01T14:11:00;19.60;;;18.00;;
14187;SDS011;7175;51.978;5.330;2022-08-01T14:13:33;19.40;;;17.80;;
14187;SDS011;7175;51.978;5.330;2022-08-01T14:16:11;19.53;;;17.93;;
14187;SDS011;7175;51.978;5.330;2022-08-01T14:18:43;20.03;;;18.33;;
14187;SDS011;7175;51.978;5.330;2022-08-01T14:21:13;19.40;;;17.80;;
14187;SDS011;7175;51.978;5.330;2022-08-01T14:23:42;19.80;;;18.20;;
14187;SDS011;7175;51.978;5.330;2022-08-01T14:26:10;19.90;;;18.30;;
14187;SDS011;7175;51.978;5.330;2022-08-01T14:28:39;19.93;;;18.33;;
14187;SDS011;7175;51.978;5.330;2022-08-01T14:31:07;19.97;;;18.37;;
14187;SDS011;7175;51.978;5.330;2022-08-01T14:33:40;19.87;;;18.27;;
14187;SDS011;7175;51.978;5.330;2022-08-01T14:36:10;20.60;;;18.80;;
14187;SDS011;7175;51.978;5.330;2022-08-01T14:38:59;20.10;;;18.43;;
14187;SDS011;7175;51.978;5.330;2022-08-01T14:41:28;20.00;;;18.30;;
14187;SDS011;7175;51.978;5.330;2022-08-01T14:43:58;19.40;;;17.80;;
14187;SDS011;7175;51.978;5.330;2022-08-01T14:46:27;20.20;;;18.50;;
14187;SDS011;7175;51.978;5.330;2022-08-01T14:48:59;20.17;;;18.50;;
14187;SDS011;7175;51.978;5.330;2022-08-01T14:51:29;20.00;;;18.40;;
14187;SDS011;7175;51.978;5.330;2022-08-01T14:53:59;20.40;;;18.70;;
14187;SDS011;7175;51.978;5.330;2022-08-01T14:56:29;20.40;;;18.70;;
14187;SDS011;7175;51.978;5.330;2022-08-01T14:58:57;19.70;;;18.10;;
14187;SDS011;7175;51.978;5.330;2022-08-01T15:01:26;20.00;;;18.30;;
14187;SDS011;7175;51.978;5.330;2022-08-01T15:03:54;19.80;;;18.10;;
14187;SDS011;7175;51.978;5.330;2022-08-01T15:06:23;19.90;;;18.20;;
14187;SDS011;7175;51.978;5.330;2022-08-01T15:08:53;19.83;;;18.23;;
14187;SDS011;7175;51.978;5.330;2022-08-01T15:11:22;19.90;;;18.27;;
14187;SDS011;7175;51.978;5.330;2022-08-01T15:13:59;19.47;;;17.87;;
14187;SDS011;7175;51.978;5.330;2022-08-01T15:16:45;19.20;;;17.60;;
14187;SDS011;7175;51.978;5.330;2022-08-01T15:19:14;18.70;;;17.20;;
14187;SDS011;7175;51.978;5.330;2022-08-01T15:21:43;19.13;;;17.53;;
14187;SDS011;7175;51.978;5.330;2022-08-01T15:24:12;19.13;;;17.53;;
14187;SDS011;7175;51.978;5.330;2022-08-01T15:26:42;19.77;;;18.17;;
14187;SDS011;7175;51.978;5.330;2022-08-01T15:29:12;18.97;;;17.37;;
14187;SDS011;7175;51.978;5.330;2022-08-01T15:31:42;19.10;;;17.50;;
14187;SDS011;7175;51.978;5.330;2022-08-01T15:34:11;19.20;;;17.60;;
14187;SDS011;7175;51.978;5.330;2022-08-01T15:36:41;19.30;;;17.70;;